createdAt,value
2023-04-12T00:00:44.949Z,5.50
2023-04-12T00:03:51.045Z,5.47
2023-04-12T00:06:54.587Z,4.43
2023-04-12T00:09:58.317Z,4.30
2023-04-12T00:13:00.157Z,4.57
2023-04-12T00:16:02.102Z,6.30
2023-04-12T00:19:05.091Z,5.40
2023-04-12T00:22:06.931Z,5.30
2023-04-12T00:25:10.841Z,4.20
2023-04-12T00:28:12.799Z,4.40
2023-04-12T00:31:14.933Z,7.13
2023-04-12T00:34:17.308Z,4.55
2023-04-12T00:37:19.864Z,4.57
2023-04-12T00:40:23.231Z,4.55
2023-04-12T00:43:27.628Z,4.60
2023-04-12T00:46:30.069Z,4.70
2023-04-12T00:49:33.776Z,5.28
2023-04-12T00:52:35.870Z,5.72
2023-04-12T00:55:39.137Z,5.72
2023-04-12T00:58:41.638Z,6.53
2023-04-12T01:01:45.605Z,8.30
2023-04-12T01:04:50.724Z,4.30
2023-04-12T01:08:05.326Z,5.80
2023-04-12T01:11:15.647Z,5.95
2023-04-12T01:14:24.599Z,6.93
2023-04-12T01:17:31.406Z,10.55
2023-04-12T01:20:39.386Z,7.95
2023-04-12T01:23:54.112Z,5.47
2023-04-12T01:27:00.866Z,6.25
2023-04-12T01:30:08.361Z,6.60
2023-04-12T01:33:12.404Z,5.07
2023-04-12T01:36:18.287Z,5.72
2023-04-12T01:39:20.466Z,6.80
2023-04-12T01:42:22.292Z,5.95
2023-04-12T01:45:27.548Z,5.18
2023-04-12T01:48:29.422Z,6.82
2023-04-12T01:51:42.259Z,5.63
2023-04-12T01:54:45.362Z,4.78
2023-04-12T01:57:49.372Z,5.85
2023-04-12T02:00:54.940Z,5.82
2023-04-12T02:04:00.051Z,6.65
2023-04-12T02:07:02.794Z,6.57
2023-04-12T02:10:05.234Z,5.20
2023-04-12T02:13:07.582Z,5.10
2023-04-12T02:16:11.105Z,6.05
2023-04-12T02:19:14.109Z,6.35
2023-04-12T02:22:16.789Z,5.10
2023-04-12T02:25:18.728Z,6.07
2023-04-12T02:28:23.241Z,7.03
2023-04-12T02:31:26.456Z,5.50
2023-04-12T02:34:34.248Z,5.00
2023-04-12T02:37:37.011Z,5.47
2023-04-12T02:40:40.894Z,5.60
2023-04-12T02:43:43.527Z,6.57
2023-04-12T02:46:46.700Z,6.55
2023-04-12T02:49:49.444Z,7.97
2023-04-12T02:52:51.664Z,5.93
2023-04-12T02:55:53.481Z,6.05
2023-04-12T02:58:55.844Z,6.88
2023-04-12T03:01:59.174Z,7.22
2023-04-12T03:05:03.393Z,7.65
2023-04-12T03:08:05.886Z,7.53
2023-04-12T03:11:07.781Z,5.40
2023-04-12T03:14:10.420Z,6.70
2023-04-12T03:17:13.644Z,7.70
2023-04-12T03:20:17.320Z,5.82
2023-04-12T03:23:20.611Z,6.70
2023-04-12T03:26:26.600Z,6.30
2023-04-12T03:29:28.695Z,6.70
2023-04-12T03:32:34.837Z,6.88
2023-04-12T03:38:39.091Z,8.57
2023-04-12T03:41:41.559Z,5.75
2023-04-12T03:44:43.435Z,5.82
2023-04-12T03:47:46.871Z,6.05
2023-04-12T03:50:49.434Z,5.65
2023-04-12T03:53:51.258Z,5.30
2023-04-12T03:56:53.337Z,4.07
2023-04-12T03:59:55.412Z,5.35
2023-04-12T04:03:03.725Z,5.60
2023-04-12T04:06:07.262Z,5.30
2023-04-12T04:09:09.125Z,6.65
2023-04-12T04:12:11.355Z,5.50
2023-04-12T04:15:15.108Z,4.85
2023-04-12T04:18:18.617Z,4.25
2023-04-12T04:21:22.419Z,5.72
2023-04-12T04:24:25.440Z,4.65
2023-04-12T04:27:30.671Z,4.75
2023-04-12T04:30:34.409Z,4.53
2023-04-12T04:33:38.007Z,4.60
2023-04-12T04:36:41.761Z,5.00
2023-04-12T04:39:43.539Z,3.83
2023-04-12T04:42:46.437Z,3.30
2023-04-12T04:45:54.699Z,3.47
2023-04-12T04:48:58.744Z,4.78
2023-04-12T04:52:01.258Z,4.25
2023-04-12T04:55:05.715Z,5.65
2023-04-12T04:58:08.791Z,3.38
2023-04-12T05:01:13.499Z,3.80
2023-04-12T05:04:16.995Z,4.25
2023-04-12T05:07:19.832Z,4.43
2023-04-12T05:10:21.790Z,3.50
2023-04-12T05:13:23.694Z,4.55
2023-04-12T05:16:25.715Z,4.18
2023-04-12T05:19:29.689Z,4.32
2023-04-12T05:22:32.669Z,3.67
2023-04-12T05:25:34.577Z,5.10
2023-04-12T05:28:36.370Z,5.43
2023-04-12T05:31:39.152Z,5.32
2023-04-12T05:34:42.355Z,3.20
2023-04-12T05:37:45.133Z,5.38
2023-04-12T05:40:50.037Z,4.43
2023-04-12T05:43:52.015Z,5.18
2023-04-12T05:46:54.013Z,3.95
2023-04-12T05:49:57.674Z,5.97
2023-04-12T05:53:01.437Z,5.43
2023-04-12T05:56:04.331Z,5.57
2023-04-12T05:59:06.732Z,4.47
2023-04-12T06:02:10.740Z,6.15
2023-04-12T06:05:15.436Z,5.53
2023-04-12T06:11:21.211Z,8.35
2023-04-12T06:14:23.082Z,6.28
2023-04-12T06:17:24.981Z,6.45
2023-04-12T06:20:28.379Z,5.68
2023-04-12T06:23:30.162Z,6.15
2023-04-12T06:26:38.941Z,6.43
2023-04-12T06:29:41.030Z,7.20
2023-04-12T06:32:43.116Z,5.93
2023-04-12T06:35:46.345Z,5.88
2023-04-12T06:38:50.943Z,8.77
2023-04-12T06:41:52.916Z,7.60
2023-04-12T06:44:54.750Z,6.35
2023-04-12T06:47:57.196Z,6.15
2023-04-12T06:51:00.573Z,4.85
2023-04-12T06:54:03.013Z,5.75
2023-04-12T06:57:09.584Z,5.15
2023-04-12T07:00:13.137Z,5.85
2023-04-12T07:03:15.003Z,7.43
2023-04-12T07:06:25.688Z,6.65
2023-04-12T07:09:30.708Z,5.00
2023-04-12T07:12:33.073Z,6.30
2023-04-12T07:15:34.972Z,5.65
2023-04-12T07:18:36.790Z,8.82
2023-04-12T07:21:40.269Z,11.25
2023-04-12T07:24:42.099Z,5.47
2023-04-12T07:27:44.768Z,7.10
2023-04-12T07:30:46.735Z,5.53
2023-04-12T07:33:48.975Z,8.57
2023-04-12T07:36:52.197Z,5.32
2023-04-12T07:39:54.830Z,7.07
2023-04-12T07:42:56.650Z,6.80
2023-04-12T07:45:59.108Z,5.72
2023-04-12T07:49:01.113Z,6.20
2023-04-12T07:52:05.491Z,7.88
2023-04-12T07:55:07.968Z,7.43
2023-04-12T07:58:10.016Z,5.68
2023-04-12T08:01:13.598Z,6.35
2023-04-12T08:04:15.734Z,6.47
2023-04-12T08:07:19.317Z,4.88
2023-04-12T08:10:21.160Z,7.47
2023-04-12T08:13:23.716Z,8.60
2023-04-12T08:16:25.869Z,5.53
2023-04-12T08:19:28.818Z,6.43
2023-04-12T08:22:32.052Z,5.75
2023-04-12T08:25:34.195Z,4.88
2023-04-12T08:28:38.456Z,7.03
2023-04-12T08:31:42.259Z,5.05
2023-04-12T08:34:46.053Z,6.57
2023-04-12T08:37:49.994Z,5.47
2023-04-12T08:40:51.807Z,4.30
2023-04-12T08:43:55.836Z,5.32
2023-04-12T08:46:58.093Z,4.22
2023-04-12T08:50:02.758Z,5.53
2023-04-12T08:53:06.167Z,8.35
2023-04-12T08:56:11.366Z,4.65
2023-04-12T08:59:14.639Z,3.90
2023-04-12T09:02:16.742Z,4.25
2023-04-12T09:05:19.713Z,5.43
2023-04-12T09:08:23.072Z,4.93
2023-04-12T09:11:27.616Z,5.63
2023-04-12T09:14:29.505Z,4.32
2023-04-12T09:17:32.425Z,5.88
2023-04-12T09:20:35.089Z,5.20
2023-04-12T09:23:38.915Z,4.28
2023-04-12T09:26:40.819Z,5.47
2023-04-12T09:29:42.653Z,3.83
2023-04-12T09:32:46.055Z,4.63
2023-04-12T09:35:48.500Z,3.50
2023-04-12T09:39:02.137Z,3.83
2023-04-12T09:42:05.045Z,4.75
2023-04-12T09:45:20.385Z,5.45
2023-04-12T09:48:22.445Z,3.95
2023-04-12T09:51:26.721Z,4.63
2023-04-12T09:54:30.827Z,5.45
2023-04-12T09:57:34.371Z,5.78
2023-04-12T10:00:36.944Z,4.75
2023-04-12T10:03:39.780Z,4.10
2023-04-12T10:06:42.243Z,5.30
2023-04-12T10:09:46.515Z,3.55
2023-04-12T10:12:49.563Z,3.97
2023-04-12T10:15:53.075Z,5.47
2023-04-12T10:18:55.781Z,3.67
2023-04-12T10:21:58.481Z,3.33
2023-04-12T10:25:02.386Z,4.93
2023-04-12T10:28:14.483Z,5.07
2023-04-12T10:31:30.452Z,7.55
2023-04-12T10:34:32.386Z,6.32
2023-04-12T10:37:59.338Z,5.72
2023-04-12T10:41:15.618Z,5.20
2023-04-12T10:44:25.018Z,6.13
2023-04-12T10:48:02.003Z,3.85
2023-04-12T10:51:20.031Z,5.05
2023-04-12T10:54:40.746Z,4.35
2023-04-12T10:57:49.500Z,6.05
2023-04-12T11:01:10.640Z,5.18
2023-04-12T11:04:18.087Z,5.97
2023-04-12T11:07:20.964Z,3.50
2023-04-12T11:10:25.920Z,4.95
2023-04-12T11:13:30.107Z,5.57
2023-04-12T11:16:32.267Z,5.90
2023-04-12T11:19:36.634Z,5.00
2023-04-12T11:22:40.933Z,4.32
2023-04-12T11:25:44.297Z,3.55
2023-04-12T11:28:48.308Z,5.35
2023-04-12T11:31:50.399Z,4.60
2023-04-12T11:34:53.333Z,2.58
2023-04-12T11:37:57.474Z,3.40
2023-04-12T11:41:00.308Z,5.30
2023-04-12T11:44:03.804Z,5.70
2023-04-12T11:47:05.894Z,4.38
2023-04-12T11:50:09.212Z,4.50
2023-04-12T11:53:12.203Z,6.70
2023-04-12T11:56:14.732Z,2.63
2023-04-12T11:59:18.533Z,5.15
2023-04-12T12:02:23.803Z,2.92
2023-04-12T12:05:27.300Z,3.83
2023-04-12T12:08:30.513Z,3.38
2023-04-12T12:11:33.145Z,5.05
2023-04-12T12:14:36.606Z,4.32
2023-04-12T12:17:38.952Z,4.20
2023-04-12T12:20:42.566Z,4.07
2023-04-12T12:23:46.250Z,4.75
2023-04-12T12:26:49.695Z,6.82
2023-04-12T12:29:55.330Z,5.00
2023-04-12T12:32:57.186Z,3.35
2023-04-12T12:35:59.167Z,3.90
2023-04-12T12:39:07.294Z,7.00
2023-04-12T12:42:12.452Z,3.33
2023-04-12T12:45:17.322Z,3.63
2023-04-12T12:48:21.622Z,3.90
2023-04-12T12:51:23.535Z,5.20
2023-04-12T12:57:30.820Z,2.88
2023-04-12T13:00:34.061Z,2.20
2023-04-12T13:03:36.214Z,2.60
2023-04-12T13:06:39.335Z,4.85
2023-04-12T13:09:41.567Z,3.55
2023-04-12T13:12:43.376Z,3.85
2023-04-12T13:15:51.784Z,4.40
2023-04-12T13:18:53.982Z,3.50
2023-04-12T13:21:56.183Z,2.78
2023-04-12T13:24:58.962Z,4.43
2023-04-12T13:28:00.861Z,2.55
2023-04-12T13:31:04.617Z,7.25
2023-04-12T13:34:06.467Z,4.63
2023-04-12T13:37:08.982Z,2.55
2023-04-12T13:40:11.316Z,4.45
2023-04-12T13:43:13.172Z,3.30
2023-04-12T13:46:17.346Z,5.40
2023-04-12T13:49:19.333Z,2.72
2023-04-12T13:52:21.914Z,4.65
2023-04-12T13:55:23.789Z,2.22
2023-04-12T13:58:26.111Z,2.63
2023-04-12T14:01:30.291Z,3.28
2023-04-12T14:04:32.320Z,3.45
2023-04-12T14:07:34.822Z,2.83
2023-04-12T14:10:36.660Z,5.95
2023-04-12T14:13:38.854Z,3.03
2023-04-12T14:16:42.187Z,3.55
2023-04-12T14:19:44.831Z,2.45
2023-04-12T14:22:46.661Z,3.72
2023-04-12T14:25:48.496Z,2.40
2023-04-12T14:28:51.740Z,3.30
2023-04-12T14:31:54.903Z,3.10
2023-04-12T14:34:56.836Z,3.67
2023-04-12T14:37:58.606Z,4.65
2023-04-12T14:41:00.622Z,1.88
2023-04-12T14:44:02.764Z,2.75
2023-04-12T14:47:06.136Z,3.92
2023-04-12T14:50:09.333Z,2.63
2023-04-12T14:53:13.800Z,2.90
2023-04-12T14:56:23.798Z,2.92
2023-04-12T14:59:29.711Z,3.38
2023-04-12T15:02:33.283Z,3.60
2023-04-12T15:05:36.168Z,3.25
2023-04-12T15:08:41.697Z,2.92
2023-04-12T15:11:47.052Z,3.40
2023-04-12T15:17:55.813Z,4.30
2023-04-12T15:21:00.232Z,3.90
2023-04-12T15:24:02.803Z,2.55
2023-04-12T15:27:06.607Z,5.43
2023-04-12T15:30:12.313Z,4.55
2023-04-12T15:36:20.375Z,3.33
2023-04-12T15:39:22.863Z,2.47
2023-04-12T15:42:24.699Z,3.15
2023-04-12T15:45:28.163Z,5.35
2023-04-12T15:48:31.708Z,2.60
2023-04-12T15:51:35.461Z,2.72
2023-04-12T15:54:43.582Z,2.85
2023-04-12T15:57:47.112Z,5.50
2023-04-12T16:00:49.820Z,3.80
2023-04-12T16:03:53.953Z,2.13
2023-04-12T16:06:55.896Z,14.48
2023-04-12T16:09:58.049Z,4.00
2023-04-12T16:13:00.574Z,3.70
2023-04-12T16:16:02.399Z,3.47
2023-04-12T16:19:06.361Z,2.03
2023-04-12T16:22:09.105Z,2.45
2023-04-12T16:25:12.102Z,9.57
2023-04-12T16:28:17.725Z,2.92
2023-04-12T16:34:25.116Z,2.95
2023-04-12T16:37:29.793Z,2.80
2023-04-12T16:40:32.507Z,3.92
2023-04-12T16:43:34.394Z,2.33
2023-04-12T16:46:36.828Z,2.40
2023-04-12T16:49:42.197Z,2.00
2023-04-12T16:52:44.177Z,4.05
2023-04-12T16:55:47.757Z,2.90
2023-04-12T16:58:50.326Z,4.07
2023-04-12T17:01:53.416Z,2.45
2023-04-12T17:04:56.984Z,6.20
2023-04-12T17:08:03.239Z,2.65
2023-04-12T17:11:05.963Z,2.38
2023-04-12T17:14:28.729Z,3.13
2023-04-12T17:17:30.789Z,2.03
2023-04-12T17:20:36.644Z,4.90
2023-04-12T17:23:39.764Z,4.03
2023-04-12T17:26:42.521Z,3.65
2023-04-12T17:29:45.388Z,3.53
2023-04-12T17:32:47.895Z,4.60
2023-04-12T17:35:55.251Z,5.78
2023-04-12T17:38:59.710Z,4.95
2023-04-12T17:42:02.029Z,6.85
2023-04-12T17:45:06.872Z,6.80
2023-04-12T17:48:11.744Z,4.45
2023-04-12T17:51:17.765Z,6.13
2023-04-12T17:54:21.815Z,4.78
2023-04-12T17:57:24.142Z,4.28
2023-04-12T18:00:27.781Z,4.45
2023-04-12T18:03:30.424Z,4.78
2023-04-12T18:06:36.606Z,4.20
2023-04-12T18:09:39.086Z,4.82
2023-04-12T18:12:41.488Z,6.55
2023-04-12T18:15:44.013Z,4.78
2023-04-12T18:18:46.579Z,4.75
2023-04-12T18:21:51.745Z,3.78
2023-04-12T18:24:54.966Z,5.78
2023-04-12T18:27:58.187Z,5.18
2023-04-12T18:31:02.853Z,4.88
2023-04-12T18:34:06.712Z,4.82
2023-04-12T18:37:13.597Z,7.30
2023-04-12T18:40:17.303Z,4.85
2023-04-12T18:43:21.792Z,5.75
2023-04-12T18:46:27.397Z,5.35
2023-04-12T18:49:30.545Z,4.05
2023-04-12T18:52:38.742Z,7.45
2023-04-12T18:55:43.383Z,4.28
2023-04-12T19:01:54.608Z,5.35
2023-04-12T19:04:59.072Z,5.78
2023-04-12T19:08:03.748Z,6.15
2023-04-12T19:11:07.236Z,6.13
2023-04-12T19:14:12.178Z,4.72
2023-04-12T19:17:15.471Z,5.70
2023-04-12T19:20:20.082Z,4.60
2023-04-12T19:23:25.793Z,5.05
2023-04-12T19:26:29.103Z,4.93
2023-04-12T19:29:31.866Z,4.80
2023-04-12T19:32:34.299Z,6.78
2023-04-12T19:35:42.029Z,5.65
2023-04-12T19:38:49.182Z,5.65
2023-04-12T19:41:53.181Z,3.75
2023-04-12T19:44:56.386Z,5.32
2023-04-12T19:48:00.693Z,4.68
2023-04-12T19:51:03.148Z,4.90
2023-04-12T19:54:10.649Z,4.05
2023-04-12T19:57:21.002Z,4.63
2023-04-12T20:00:26.008Z,4.95
2023-04-12T20:03:29.070Z,6.53
2023-04-12T20:06:32.201Z,5.13
2023-04-12T20:09:37.115Z,4.43
2023-04-12T20:12:40.999Z,5.18
2023-04-12T20:15:45.565Z,4.63
2023-04-12T20:18:48.732Z,3.70
2023-04-12T20:21:51.452Z,6.70
2023-04-12T20:24:55.958Z,6.45
2023-04-12T20:27:59.267Z,5.15
2023-04-12T20:31:02.308Z,7.72
2023-04-12T20:34:05.399Z,5.30
2023-04-12T20:37:09.069Z,4.55
2023-04-12T20:40:13.240Z,3.97
2023-04-12T20:43:17.100Z,3.75
2023-04-12T20:46:20.711Z,4.47
2023-04-12T20:49:26.913Z,4.53
2023-04-12T20:52:30.517Z,4.68
2023-04-12T20:55:35.343Z,5.97
2023-04-12T20:58:38.565Z,5.60
2023-04-12T21:01:40.613Z,6.00
2023-04-12T21:04:42.759Z,7.38
2023-04-12T21:07:46.819Z,6.78
2023-04-12T21:10:50.897Z,4.82
2023-04-12T21:13:52.729Z,6.38
2023-04-12T21:16:54.563Z,8.48
2023-04-12T21:19:57.497Z,10.05
2023-04-12T21:22:59.758Z,9.95
2023-04-12T21:26:04.145Z,10.18
2023-04-12T21:29:06.692Z,10.40
2023-04-12T21:32:09.267Z,11.25
2023-04-12T21:35:11.971Z,8.77
2023-04-12T21:38:14.684Z,7.78
2023-04-12T21:41:17.836Z,9.68
2023-04-12T21:44:20.065Z,6.65
2023-04-12T21:47:22.803Z,5.85
2023-04-12T21:50:24.770Z,12.57
2023-04-12T21:53:27.359Z,12.60
2023-04-12T21:56:30.531Z,11.77
2023-04-12T21:59:32.648Z,9.20
2023-04-12T22:02:34.605Z,11.98
2023-04-12T22:05:39.863Z,7.35
2023-04-12T22:08:44.220Z,7.75
2023-04-12T22:11:49.129Z,5.15
2023-04-12T22:14:51.363Z,5.05
2023-04-12T22:17:53.423Z,10.82
2023-04-12T22:20:56.275Z,4.53
2023-04-12T22:23:58.421Z,6.05
2023-04-12T22:27:01.936Z,6.47
2023-04-12T22:30:06.927Z,7.18
2023-04-12T22:33:08.891Z,6.75
2023-04-12T22:36:11.874Z,10.70
2023-04-12T22:39:15.636Z,6.50
2023-04-12T22:42:20.814Z,7.60
2023-04-12T22:45:22.614Z,6.05
2023-04-12T22:48:25.053Z,7.70
2023-04-12T22:51:28.058Z,7.43
2023-04-12T22:54:29.921Z,8.00
2023-04-12T22:57:35.097Z,6.78
2023-04-12T23:00:37.132Z,7.35
2023-04-12T23:03:41.817Z,8.80
2023-04-12T23:06:44.269Z,9.48
2023-04-12T23:09:46.492Z,10.02
2023-04-12T23:12:54.723Z,9.30
2023-04-12T23:15:57.850Z,8.98
2023-04-12T23:18:59.993Z,10.10
2023-04-12T23:22:03.373Z,12.95
2023-04-12T23:25:06.008Z,13.15
2023-04-12T23:28:15.133Z,10.88
2023-04-12T23:31:17.115Z,10.45
2023-04-12T23:34:22.082Z,12.88
2023-04-12T23:37:23.943Z,10.80
2023-04-12T23:40:26.415Z,9.43
2023-04-12T23:43:31.293Z,9.73
2023-04-12T23:46:33.162Z,12.38
2023-04-12T23:49:35.464Z,16.33
2023-04-12T23:52:37.531Z,9.73
2023-04-12T23:55:42.783Z,11.50
2023-04-12T23:58:46.605Z,7.03
